sensor_id;sensor_type;location;lat;lon;timestamp;temperature;humidity
21403;DHT22;10862;51.886;17.078;2024-02-21T00:02:06;8.30;99.90
21403;DHT22;10862;51.886;17.078;2024-02-21T00:04:31;7.50;99.90
21403;DHT22;10862;51.886;17.078;2024-02-21T00:06:57;7.40;99.90
21403;DHT22;10862;51.886;17.078;2024-02-21T00:09:23;6.90;99.90
21403;DHT22;10862;51.886;17.078;2024-02-21T00:11:48;7.20;99.90
21403;DHT22;10862;51.886;17.078;2024-02-21T00:14:14;8.00;99.90
21403;DHT22;10862;51.886;17.078;2024-02-21T00:16:39;7.60;99.90
21403;DHT22;10862;51.886;17.078;2024-02-21T00:19:15;6.90;99.90
21403;DHT22;10862;51.886;17.078;2024-02-21T00:22:10;6.60;99.90
21403;DHT22;10862;51.886;17.078;2024-02-21T00:24:41;6.80;99.90
21403;DHT22;10862;51.886;17.078;2024-02-21T00:27:07;6.90;99.90
21403;DHT22;10862;51.886;17.078;2024-02-21T00:29:32;6.90;99.90
21403;DHT22;10862;51.886;17.078;2024-02-21T00:31:59;7.30;99.90
21403;DHT22;10862;51.886;17.078;2024-02-21T00:34:25;7.20;99.90
21403;DHT22;10862;51.886;17.078;2024-02-21T00:36:52;6.80;99.90
21403;DHT22;10862;51.886;17.078;2024-02-21T00:39:18;6.70;99.90
21403;DHT22;10862;51.886;17.078;2024-02-21T00:41:58;6.70;99.90
21403;DHT22;10862;51.886;17.078;2024-02-21T00:44:24;7.20;99.90
21403;DHT22;10862;51.886;17.078;2024-02-21T00:46:55;7.30;99.90
21403;DHT22;10862;51.886;17.078;2024-02-21T00:49:21;7.00;99.90
21403;DHT22;10862;51.886;17.078;2024-02-21T00:51:55;6.80;99.90
21403;DHT22;10862;51.886;17.078;2024-02-21T00:54:21;6.20;99.90
21403;DHT22;10862;51.886;17.078;2024-02-21T00:56:48;7.80;99.90
21403;DHT22;10862;51.886;17.078;2024-02-21T00:59:16;6.80;99.90
21403;DHT22;10862;51.886;17.078;2024-02-21T01:02:00;7.00;99.90
21403;DHT22;10862;51.886;17.078;2024-02-21T01:04:27;5.90;99.90
21403;DHT22;10862;51.886;17.078;2024-02-21T01:06:55;7.40;99.90
21403;DHT22;10862;51.886;17.078;2024-02-21T01:09:25;7.70;99.90
21403;DHT22;10862;51.886;17.078;2024-02-21T01:11:51;6.60;99.90
21403;DHT22;10862;51.886;17.078;2024-02-21T01:14:19;5.70;99.90
21403;DHT22;10862;51.886;17.078;2024-02-21T01:16:45;6.80;99.90
21403;DHT22;10862;51.886;17.078;2024-02-21T01:19:10;8.00;99.90
21403;DHT22;10862;51.886;17.078;2024-02-21T01:21:36;5.60;99.90
21403;DHT22;10862;51.886;17.078;2024-02-21T01:24:05;6.80;99.90
21403;DHT22;10862;51.886;17.078;2024-02-21T01:26:40;7.00;99.90
21403;DHT22;10862;51.886;17.078;2024-02-21T01:29:15;7.10;99.90
21403;DHT22;10862;51.886;17.078;2024-02-21T01:31:46;7.20;99.90
21403;DHT22;10862;51.886;17.078;2024-02-21T01:34:13;7.10;99.90
21403;DHT22;10862;51.886;17.078;2024-02-21T01:36:43;7.50;99.90
21403;DHT22;10862;51.886;17.078;2024-02-21T01:42:09;7.00;99.90
21403;DHT22;10862;51.886;17.078;2024-02-21T01:44:34;7.70;99.90
21403;DHT22;10862;51.886;17.078;2024-02-21T01:47:00;6.90;99.90
21403;DHT22;10862;51.886;17.078;2024-02-21T01:49:25;6.70;99.90
21403;DHT22;10862;51.886;17.078;2024-02-21T01:51:52;7.10;99.90
21403;DHT22;10862;51.886;17.078;2024-02-21T01:54:18;8.20;99.90
21403;DHT22;10862;51.886;17.078;2024-02-21T01:56:48;6.70;99.90
21403;DHT22;10862;51.886;17.078;2024-02-21T01:59:14;6.80;99.90
21403;DHT22;10862;51.886;17.078;2024-02-21T02:01:40;7.10;99.90
21403;DHT22;10862;51.886;17.078;2024-02-21T02:04:09;7.20;99.90
21403;DHT22;10862;51.886;17.078;2024-02-21T02:06:38;6.90;99.90
21403;DHT22;10862;51.886;17.078;2024-02-21T02:09:10;7.00;99.90
21403;DHT22;10862;51.886;17.078;2024-02-21T02:11:42;7.00;99.90
21403;DHT22;10862;51.886;17.078;2024-02-21T02:14:10;7.20;99.90
21403;DHT22;10862;51.886;17.078;2024-02-21T02:16:36;7.30;99.90
21403;DHT22;10862;51.886;17.078;2024-02-21T02:19:03;7.70;99.90
21403;DHT22;10862;51.886;17.078;2024-02-21T02:21:29;7.50;99.90
21403;DHT22;10862;51.886;17.078;2024-02-21T02:23:55;7.10;99.90
21403;DHT22;10862;51.886;17.078;2024-02-21T02:26:21;7.30;99.90
21403;DHT22;10862;51.886;17.078;2024-02-21T02:28:47;7.50;99.90
21403;DHT22;10862;51.886;17.078;2024-02-21T02:31:15;7.00;99.90
21403;DHT22;10862;51.886;17.078;2024-02-21T02:33:42;7.00;99.90
21403;DHT22;10862;51.886;17.078;2024-02-21T02:36:08;8.00;99.90
21403;DHT22;10862;51.886;17.078;2024-02-21T02:38:33;6.90;99.90
21403;DHT22;10862;51.886;17.078;2024-02-21T02:41:01;7.80;99.90
21403;DHT22;10862;51.886;17.078;2024-02-21T02:43:27;6.90;99.90
21403;DHT22;10862;51.886;17.078;2024-02-21T02:49:12;6.80;99.90
21403;DHT22;10862;51.886;17.078;2024-02-21T02:51:41;7.70;99.90
21403;DHT22;10862;51.886;17.078;2024-02-21T02:54:09;7.10;99.90
21403;DHT22;10862;51.886;17.078;2024-02-21T02:56:35;7.10;99.90
21403;DHT22;10862;51.886;17.078;2024-02-21T02:59:00;8.00;99.90
21403;DHT22;10862;51.886;17.078;2024-02-21T03:01:28;7.70;99.90
21403;DHT22;10862;51.886;17.078;2024-02-21T03:03:55;6.80;99.90
21403;DHT22;10862;51.886;17.078;2024-02-21T03:06:21;7.80;99.90
21403;DHT22;10862;51.886;17.078;2024-02-21T03:08:49;7.30;99.90
21403;DHT22;10862;51.886;17.078;2024-02-21T03:11:17;6.80;99.90
21403;DHT22;10862;51.886;17.078;2024-02-21T03:13:43;7.60;99.90
21403;DHT22;10862;51.886;17.078;2024-02-21T03:16:14;7.10;99.90
21403;DHT22;10862;51.886;17.078;2024-02-21T03:18:48;6.90;99.90
21403;DHT22;10862;51.886;17.078;2024-02-21T03:21:25;7.20;99.90
21403;DHT22;10862;51.886;17.078;2024-02-21T03:23:51;7.30;99.90
21403;DHT22;10862;51.886;17.078;2024-02-21T03:26:18;7.60;99.90
21403;DHT22;10862;51.886;17.078;2024-02-21T03:28:44;7.10;99.90
21403;DHT22;10862;51.886;17.078;2024-02-21T03:31:12;7.80;99.90
21403;DHT22;10862;51.886;17.078;2024-02-21T03:33:42;6.80;99.90
21403;DHT22;10862;51.886;17.078;2024-02-21T03:36:23;6.90;99.90
21403;DHT22;10862;51.886;17.078;2024-02-21T03:38:50;6.90;99.90
21403;DHT22;10862;51.886;17.078;2024-02-21T03:41:15;7.00;99.90
21403;DHT22;10862;51.886;17.078;2024-02-21T03:43:41;6.90;99.90
21403;DHT22;10862;51.886;17.078;2024-02-21T03:46:06;7.60;99.90
21403;DHT22;10862;51.886;17.078;2024-02-21T03:48:35;6.70;99.90
21403;DHT22;10862;51.886;17.078;2024-02-21T03:51:01;6.90;99.90
21403;DHT22;10862;51.886;17.078;2024-02-21T03:53:26;7.70;99.90
21403;DHT22;10862;51.886;17.078;2024-02-21T03:55:53;7.00;99.90
21403;DHT22;10862;51.886;17.078;2024-02-21T03:58:20;7.00;99.90
21403;DHT22;10862;51.886;17.078;2024-02-21T04:00:46;7.20;99.90
21403;DHT22;10862;51.886;17.078;2024-02-21T04:03:27;7.40;99.90
21403;DHT22;10862;51.886;17.078;2024-02-21T04:05:52;5.90;99.90
21403;DHT22;10862;51.886;17.078;2024-02-21T04:08:22;7.60;99.90
21403;DHT22;10862;51.886;17.078;2024-02-21T04:11:03;7.90;99.90
21403;DHT22;10862;51.886;17.078;2024-02-21T04:13:37;7.90;99.90
21403;DHT22;10862;51.886;17.078;2024-02-21T04:16:03;7.10;99.90
21403;DHT22;10862;51.886;17.078;2024-02-21T04:18:31;6.90;99.90
21403;DHT22;10862;51.886;17.078;2024-02-21T04:21:03;7.70;99.90
21403;DHT22;10862;51.886;17.078;2024-02-21T04:23:29;7.50;99.90
21403;DHT22;10862;51.886;17.078;2024-02-21T04:26:00;7.00;99.90
21403;DHT22;10862;51.886;17.078;2024-02-21T04:28:37;6.00;99.90
21403;DHT22;10862;51.886;17.078;2024-02-21T04:31:12;7.20;99.90
21403;DHT22;10862;51.886;17.078;2024-02-21T04:33:48;6.60;99.90
21403;DHT22;10862;51.886;17.078;2024-02-21T04:36:14;6.30;99.90
21403;DHT22;10862;51.886;17.078;2024-02-21T04:38:43;7.60;99.90
21403;DHT22;10862;51.886;17.078;2024-02-21T04:41:08;6.80;99.90
21403;DHT22;10862;51.886;17.078;2024-02-21T04:43:35;6.80;99.90
21403;DHT22;10862;51.886;17.078;2024-02-21T04:46:10;7.60;99.90
21403;DHT22;10862;51.886;17.078;2024-02-21T04:48:35;7.40;99.90
21403;DHT22;10862;51.886;17.078;2024-02-21T04:51:03;7.00;99.90
21403;DHT22;10862;51.886;17.078;2024-02-21T04:53:29;6.80;99.90
21403;DHT22;10862;51.886;17.078;2024-02-21T04:55:55;6.70;99.90
21403;DHT22;10862;51.886;17.078;2024-02-21T04:58:21;6.80;99.90
21403;DHT22;10862;51.886;17.078;2024-02-21T05:00:50;6.80;99.90
21403;DHT22;10862;51.886;17.078;2024-02-21T05:03:17;7.20;99.90
21403;DHT22;10862;51.886;17.078;2024-02-21T05:05:42;7.00;99.90
21403;DHT22;10862;51.886;17.078;2024-02-21T05:08:08;6.70;99.90
21403;DHT22;10862;51.886;17.078;2024-02-21T05:10:46;7.70;99.90
21403;DHT22;10862;51.886;17.078;2024-02-21T05:15:59;6.30;99.90
21403;DHT22;10862;51.886;17.078;2024-02-21T05:18:27;7.30;99.90
21403;DHT22;10862;51.886;17.078;2024-02-21T05:20:53;5.70;99.90
21403;DHT22;10862;51.886;17.078;2024-02-21T05:23:19;7.70;99.90
21403;DHT22;10862;51.886;17.078;2024-02-21T05:25:45;6.90;99.90
21403;DHT22;10862;51.886;17.078;2024-02-21T05:28:13;7.90;99.90
21403;DHT22;10862;51.886;17.078;2024-02-21T05:30:51;6.80;99.90
21403;DHT22;10862;51.886;17.078;2024-02-21T05:33:17;8.30;99.90
21403;DHT22;10862;51.886;17.078;2024-02-21T05:35:55;7.10;99.90
21403;DHT22;10862;51.886;17.078;2024-02-21T05:38:41;6.90;99.90
21403;DHT22;10862;51.886;17.078;2024-02-21T05:41:06;7.00;99.90
21403;DHT22;10862;51.886;17.078;2024-02-21T05:43:41;7.90;99.90
21403;DHT22;10862;51.886;17.078;2024-02-21T05:46:07;5.80;99.90
21403;DHT22;10862;51.886;17.078;2024-02-21T05:48:53;7.10;99.90
21403;DHT22;10862;51.886;17.078;2024-02-21T05:51:33;7.30;99.90
21403;DHT22;10862;51.886;17.078;2024-02-21T05:54:00;6.80;99.90
21403;DHT22;10862;51.886;17.078;2024-02-21T05:56:26;7.50;99.90
21403;DHT22;10862;51.886;17.078;2024-02-21T05:58:54;7.60;99.90
21403;DHT22;10862;51.886;17.078;2024-02-21T06:01:22;6.90;99.90
21403;DHT22;10862;51.886;17.078;2024-02-21T06:03:48;6.90;99.90
21403;DHT22;10862;51.886;17.078;2024-02-21T06:06:20;6.80;99.90
21403;DHT22;10862;51.886;17.078;2024-02-21T06:08:47;6.60;99.90
21403;DHT22;10862;51.886;17.078;2024-02-21T06:11:15;7.70;99.90
21403;DHT22;10862;51.886;17.078;2024-02-21T06:13:42;6.70;99.90
21403;DHT22;10862;51.886;17.078;2024-02-21T06:16:08;6.80;99.90
21403;DHT22;10862;51.886;17.078;2024-02-21T06:18:39;6.90;99.90
21403;DHT22;10862;51.886;17.078;2024-02-21T06:21:05;6.80;99.90
21403;DHT22;10862;51.886;17.078;2024-02-21T06:23:36;7.20;99.90
21403;DHT22;10862;51.886;17.078;2024-02-21T06:26:02;7.10;99.90
21403;DHT22;10862;51.886;17.078;2024-02-21T06:28:27;6.90;99.90
21403;DHT22;10862;51.886;17.078;2024-02-21T06:30:53;7.00;99.90
21403;DHT22;10862;51.886;17.078;2024-02-21T06:33:19;7.30;99.90
21403;DHT22;10862;51.886;17.078;2024-02-21T06:35:51;6.90;99.90
21403;DHT22;10862;51.886;17.078;2024-02-21T06:38:19;6.50;99.90
21403;DHT22;10862;51.886;17.078;2024-02-21T06:40:45;7.10;99.90
21403;DHT22;10862;51.886;17.078;2024-02-21T06:43:16;7.20;99.90
21403;DHT22;10862;51.886;17.078;2024-02-21T06:45:44;7.00;99.90
21403;DHT22;10862;51.886;17.078;2024-02-21T06:48:13;6.80;99.90
21403;DHT22;10862;51.886;17.078;2024-02-21T06:50:38;6.80;99.90
21403;DHT22;10862;51.886;17.078;2024-02-21T06:53:13;7.10;99.90
21403;DHT22;10862;51.886;17.078;2024-02-21T06:55:39;6.80;99.90
21403;DHT22;10862;51.886;17.078;2024-02-21T06:58:05;7.00;99.90
21403;DHT22;10862;51.886;17.078;2024-02-21T07:00:33;8.20;99.90
21403;DHT22;10862;51.886;17.078;2024-02-21T07:02:59;7.60;99.90
21403;DHT22;10862;51.886;17.078;2024-02-21T07:05:30;7.00;99.90
21403;DHT22;10862;51.886;17.078;2024-02-21T07:07:57;7.00;99.90
21403;DHT22;10862;51.886;17.078;2024-02-21T07:10:30;6.90;99.90
21403;DHT22;10862;51.886;17.078;2024-02-21T07:13:00;6.60;99.90
21403;DHT22;10862;51.886;17.078;2024-02-21T07:15:27;7.80;99.90
21403;DHT22;10862;51.886;17.078;2024-02-21T07:17:53;7.30;99.90
21403;DHT22;10862;51.886;17.078;2024-02-21T07:20:19;7.50;99.90
21403;DHT22;10862;51.886;17.078;2024-02-21T07:22:48;7.10;99.90
21403;DHT22;10862;51.886;17.078;2024-02-21T07:25:13;7.40;99.90
21403;DHT22;10862;51.886;17.078;2024-02-21T07:30:31;7.40;99.90
21403;DHT22;10862;51.886;17.078;2024-02-21T07:32:57;7.40;99.90
21403;DHT22;10862;51.886;17.078;2024-02-21T07:35:23;7.80;99.90
21403;DHT22;10862;51.886;17.078;2024-02-21T07:37:48;7.90;99.90
21403;DHT22;10862;51.886;17.078;2024-02-21T07:40:17;7.70;99.90
21403;DHT22;10862;51.886;17.078;2024-02-21T07:42:43;7.50;99.90
21403;DHT22;10862;51.886;17.078;2024-02-21T07:45:09;7.40;99.90
21403;DHT22;10862;51.886;17.078;2024-02-21T07:47:35;7.30;99.90
21403;DHT22;10862;51.886;17.078;2024-02-21T07:50:01;7.50;99.90
21403;DHT22;10862;51.886;17.078;2024-02-21T07:52:27;7.80;99.90
21403;DHT22;10862;51.886;17.078;2024-02-21T07:54:53;7.50;99.90
21403;DHT22;10862;51.886;17.078;2024-02-21T07:57:19;7.60;99.90
21403;DHT22;10862;51.886;17.078;2024-02-21T07:59:44;7.60;99.90
21403;DHT22;10862;51.886;17.078;2024-02-21T08:02:15;7.50;99.90
21403;DHT22;10862;51.886;17.078;2024-02-21T08:04:44;7.60;99.90
21403;DHT22;10862;51.886;17.078;2024-02-21T08:07:09;7.70;99.90
21403;DHT22;10862;51.886;17.078;2024-02-21T08:09:35;7.70;99.90
21403;DHT22;10862;51.886;17.078;2024-02-21T08:12:13;7.80;99.90
21403;DHT22;10862;51.886;17.078;2024-02-21T08:14:39;7.80;99.90
21403;DHT22;10862;51.886;17.078;2024-02-21T08:17:08;7.90;99.90
21403;DHT22;10862;51.886;17.078;2024-02-21T08:19:34;7.80;99.90
21403;DHT22;10862;51.886;17.078;2024-02-21T08:22:00;7.80;99.90
21403;DHT22;10862;51.886;17.078;2024-02-21T08:24:31;8.10;99.90
21403;DHT22;10862;51.886;17.078;2024-02-21T08:26:57;7.90;99.90
21403;DHT22;10862;51.886;17.078;2024-02-21T08:29:22;8.90;99.90
21403;DHT22;10862;51.886;17.078;2024-02-21T08:31:48;8.40;99.90
21403;DHT22;10862;51.886;17.078;2024-02-21T08:34:23;8.80;99.90
21403;DHT22;10862;51.886;17.078;2024-02-21T08:36:51;7.60;99.90
21403;DHT22;10862;51.886;17.078;2024-02-21T08:39:16;8.30;99.90
21403;DHT22;10862;51.886;17.078;2024-02-21T08:41:43;8.00;99.90
21403;DHT22;10862;51.886;17.078;2024-02-21T08:44:09;8.90;99.90
21403;DHT22;10862;51.886;17.078;2024-02-21T08:46:40;8.50;99.90
21403;DHT22;10862;51.886;17.078;2024-02-21T08:49:06;9.10;99.90
21403;DHT22;10862;51.886;17.078;2024-02-21T08:51:31;8.60;99.90
21403;DHT22;10862;51.886;17.078;2024-02-21T08:54:06;8.60;99.90
21403;DHT22;10862;51.886;17.078;2024-02-21T08:56:32;8.40;99.90
21403;DHT22;10862;51.886;17.078;2024-02-21T08:59:01;9.90;99.90
21403;DHT22;10862;51.886;17.078;2024-02-21T09:01:27;8.30;99.90
21403;DHT22;10862;51.886;17.078;2024-02-21T09:03:52;9.00;99.90
21403;DHT22;10862;51.886;17.078;2024-02-21T09:06:22;8.50;99.90
21403;DHT22;10862;51.886;17.078;2024-02-21T09:08:48;8.10;99.90
21403;DHT22;10862;51.886;17.078;2024-02-21T09:11:13;9.00;99.90
21403;DHT22;10862;51.886;17.078;2024-02-21T09:13:40;8.50;99.90
21403;DHT22;10862;51.886;17.078;2024-02-21T09:16:21;8.30;99.90
21403;DHT22;10862;51.886;17.078;2024-02-21T09:18:51;9.10;99.90
21403;DHT22;10862;51.886;17.078;2024-02-21T09:21:25;8.30;99.90
21403;DHT22;10862;51.886;17.078;2024-02-21T09:23:51;8.20;99.90
21403;DHT22;10862;51.886;17.078;2024-02-21T09:26:25;8.50;99.90
21403;DHT22;10862;51.886;17.078;2024-02-21T09:28:51;8.60;99.90
21403;DHT22;10862;51.886;17.078;2024-02-21T09:31:25;8.20;99.90
21403;DHT22;10862;51.886;17.078;2024-02-21T09:33:55;8.30;99.90
21403;DHT22;10862;51.886;17.078;2024-02-21T09:36:21;8.60;99.90
21403;DHT22;10862;51.886;17.078;2024-02-21T09:38:49;8.00;99.90
21403;DHT22;10862;51.886;17.078;2024-02-21T09:43:59;8.30;99.90
21403;DHT22;10862;51.886;17.078;2024-02-21T09:51:49;8.80;99.90
21403;DHT22;10862;51.886;17.078;2024-02-21T09:54:19;8.70;99.90
21403;DHT22;10862;51.886;17.078;2024-02-21T09:56:48;9.20;99.90
21403;DHT22;10862;51.886;17.078;2024-02-21T09:59:23;9.30;99.90
21403;DHT22;10862;51.886;17.078;2024-02-21T10:01:49;8.60;99.90
21403;DHT22;10862;51.886;17.078;2024-02-21T10:04:21;10.70;99.90
21403;DHT22;10862;51.886;17.078;2024-02-21T10:06:49;9.70;25.10
21403;DHT22;10862;51.886;17.078;2024-02-21T10:09:27;9.40;34.20
21403;DHT22;10862;51.886;17.078;2024-02-21T10:11:53;9.90;1.00
21403;DHT22;10862;51.886;17.078;2024-02-21T10:14:19;10.00;1.00
21403;DHT22;10862;51.886;17.078;2024-02-21T10:16:48;9.70;1.00
21403;DHT22;10862;51.886;17.078;2024-02-21T10:19:18;9.40;1.00
21403;DHT22;10862;51.886;17.078;2024-02-21T10:21:43;9.00;1.00
21403;DHT22;10862;51.886;17.078;2024-02-21T10:24:28;9.10;1.00
21403;DHT22;10862;51.886;17.078;2024-02-21T10:26:58;9.20;1.00
21403;DHT22;10862;51.886;17.078;2024-02-21T10:29:31;8.70;1.00
21403;DHT22;10862;51.886;17.078;2024-02-21T10:32:13;10.00;1.00
21403;DHT22;10862;51.886;17.078;2024-02-21T10:34:42;9.60;1.00
21403;DHT22;10862;51.886;17.078;2024-02-21T10:37:08;8.60;1.00
21403;DHT22;10862;51.886;17.078;2024-02-21T10:42:22;10.70;1.00
21403;DHT22;10862;51.886;17.078;2024-02-21T10:44:51;9.10;1.00
21403;DHT22;10862;51.886;17.078;2024-02-21T10:47:17;9.20;1.00
21403;DHT22;10862;51.886;17.078;2024-02-21T10:49:48;9.30;1.00
21403;DHT22;10862;51.886;17.078;2024-02-21T10:58:01;9.00;1.00
21403;DHT22;10862;51.886;17.078;2024-02-21T11:00:27;9.00;1.00
21403;DHT22;10862;51.886;17.078;2024-02-21T11:03:04;9.90;1.00
21403;DHT22;10862;51.886;17.078;2024-02-21T11:05:30;8.90;1.00
21403;DHT22;10862;51.886;17.078;2024-02-21T11:07:56;9.30;1.00
21403;DHT22;10862;51.886;17.078;2024-02-21T11:10:22;8.70;1.00
21403;DHT22;10862;51.886;17.078;2024-02-21T11:13:07;9.20;1.00
21403;DHT22;10862;51.886;17.078;2024-02-21T11:15:40;10.10;1.00
21403;DHT22;10862;51.886;17.078;2024-02-21T11:18:22;9.00;1.00
21403;DHT22;10862;51.886;17.078;2024-02-21T11:20:49;9.10;1.00
21403;DHT22;10862;51.886;17.078;2024-02-21T11:23:23;9.10;1.00
21403;DHT22;10862;51.886;17.078;2024-02-21T11:25:49;9.00;1.00
21403;DHT22;10862;51.886;17.078;2024-02-21T11:28:14;8.90;1.00
21403;DHT22;10862;51.886;17.078;2024-02-21T11:30:50;9.10;1.00
21403;DHT22;10862;51.886;17.078;2024-02-21T11:33:16;9.50;1.00
21403;DHT22;10862;51.886;17.078;2024-02-21T11:35:45;9.00;1.00
21403;DHT22;10862;51.886;17.078;2024-02-21T11:38:12;8.90;1.00
21403;DHT22;10862;51.886;17.078;2024-02-21T11:40:45;9.30;1.00
21403;DHT22;10862;51.886;17.078;2024-02-21T11:43:11;10.70;1.00
21403;DHT22;10862;51.886;17.078;2024-02-21T11:45:36;9.70;1.00
21403;DHT22;10862;51.886;17.078;2024-02-21T11:48:09;9.40;1.00
21403;DHT22;10862;51.886;17.078;2024-02-21T11:50:58;10.00;1.00
21403;DHT22;10862;51.886;17.078;2024-02-21T11:53:23;9.50;1.00
21403;DHT22;10862;51.886;17.078;2024-02-21T11:56:01;10.10;1.00
21403;DHT22;10862;51.886;17.078;2024-02-21T11:58:31;10.00;1.00
21403;DHT22;10862;51.886;17.078;2024-02-21T12:00:56;10.20;1.00
21403;DHT22;10862;51.886;17.078;2024-02-21T12:03:25;10.00;1.00
21403;DHT22;10862;51.886;17.078;2024-02-21T12:05:50;11.20;1.00
21403;DHT22;10862;51.886;17.078;2024-02-21T12:08:16;10.50;1.00
21403;DHT22;10862;51.886;17.078;2024-02-21T12:10:43;10.00;1.00
21403;DHT22;10862;51.886;17.078;2024-02-21T12:13:09;10.90;1.00
21403;DHT22;10862;51.886;17.078;2024-02-21T12:15:40;9.80;1.00
21403;DHT22;10862;51.886;17.078;2024-02-21T12:18:06;10.80;1.00
21403;DHT22;10862;51.886;17.078;2024-02-21T12:20:35;8.40;1.00
21403;DHT22;10862;51.886;17.078;2024-02-21T12:23:01;9.90;1.00
21403;DHT22;10862;51.886;17.078;2024-02-21T12:25:28;9.60;1.00
21403;DHT22;10862;51.886;17.078;2024-02-21T12:28:06;9.40;1.00
21403;DHT22;10862;51.886;17.078;2024-02-21T12:30:51;9.40;1.00
21403;DHT22;10862;51.886;17.078;2024-02-21T12:33:17;9.40;1.00
21403;DHT22;10862;51.886;17.078;2024-02-21T12:35:43;9.40;1.00
21403;DHT22;10862;51.886;17.078;2024-02-21T12:38:21;9.40;1.00
21403;DHT22;10862;51.886;17.078;2024-02-21T12:40:50;9.40;1.00
21403;DHT22;10862;51.886;17.078;2024-02-21T12:43:16;8.70;1.00
21403;DHT22;10862;51.886;17.078;2024-02-21T12:45:44;9.30;1.00
21403;DHT22;10862;51.886;17.078;2024-02-21T12:48:12;9.50;1.00
21403;DHT22;10862;51.886;17.078;2024-02-21T12:50:42;9.30;1.00
21403;DHT22;10862;51.886;17.078;2024-02-21T12:53:13;8.50;1.00
21403;DHT22;10862;51.886;17.078;2024-02-21T12:55:38;9.50;1.00
21403;DHT22;10862;51.886;17.078;2024-02-21T12:58:07;10.50;1.00
21403;DHT22;10862;51.886;17.078;2024-02-21T13:00:34;9.30;1.00
21403;DHT22;10862;51.886;17.078;2024-02-21T13:03:03;9.60;1.00
21403;DHT22;10862;51.886;17.078;2024-02-21T13:05:29;9.60;1.00
21403;DHT22;10862;51.886;17.078;2024-02-21T13:07:54;9.20;1.00
21403;DHT22;10862;51.886;17.078;2024-02-21T13:10:20;9.20;1.00
21403;DHT22;10862;51.886;17.078;2024-02-21T13:12:50;9.30;1.00
21403;DHT22;10862;51.886;17.078;2024-02-21T13:15:15;9.30;1.00
21403;DHT22;10862;51.886;17.078;2024-02-21T13:20:37;9.40;1.00
21403;DHT22;10862;51.886;17.078;2024-02-21T13:23:03;9.30;1.00
21403;DHT22;10862;51.886;17.078;2024-02-21T13:25:34;9.40;1.00
21403;DHT22;10862;51.886;17.078;2024-02-21T13:28:01;9.40;1.00
21403;DHT22;10862;51.886;17.078;2024-02-21T13:30:37;10.50;1.00
21403;DHT22;10862;51.886;17.078;2024-02-21T13:33:05;9.90;1.00
21403;DHT22;10862;51.886;17.078;2024-02-21T13:38:21;9.90;1.00
21403;DHT22;10862;51.886;17.078;2024-02-21T13:40:46;10.20;1.00
21403;DHT22;10862;51.886;17.078;2024-02-21T13:43:12;9.90;1.00
21403;DHT22;10862;51.886;17.078;2024-02-21T13:45:40;9.70;99.90
21403;DHT22;10862;51.886;17.078;2024-02-21T13:48:14;10.20;99.90
21403;DHT22;10862;51.886;17.078;2024-02-21T13:50:49;10.20;99.90
21403;DHT22;10862;51.886;17.078;2024-02-21T13:53:15;10.60;99.90
21403;DHT22;10862;51.886;17.078;2024-02-21T13:55:44;10.00;99.90
21403;DHT22;10862;51.886;17.078;2024-02-21T13:58:10;10.00;99.90
21403;DHT22;10862;51.886;17.078;2024-02-21T14:00:35;10.10;99.90
21403;DHT22;10862;51.886;17.078;2024-02-21T14:03:01;10.00;99.90
21403;DHT22;10862;51.886;17.078;2024-02-21T14:05:45;10.20;99.90
21403;DHT22;10862;51.886;17.078;2024-02-21T14:08:13;10.60;99.90
21403;DHT22;10862;51.886;17.078;2024-02-21T14:10:44;8.90;99.90
21403;DHT22;10862;51.886;17.078;2024-02-21T14:13:10;10.60;99.90
21403;DHT22;10862;51.886;17.078;2024-02-21T14:15:36;9.80;99.90
21403;DHT22;10862;51.886;17.078;2024-02-21T14:18:02;9.80;99.90
21403;DHT22;10862;51.886;17.078;2024-02-21T14:20:34;8.60;99.90
21403;DHT22;10862;51.886;17.078;2024-02-21T14:22:59;10.50;1.00
21403;DHT22;10862;51.886;17.078;2024-02-21T14:25:25;9.90;99.90
21403;DHT22;10862;51.886;17.078;2024-02-21T14:27:50;10.60;99.90
21403;DHT22;10862;51.886;17.078;2024-02-21T14:30:16;9.90;1.00
21403;DHT22;10862;51.886;17.078;2024-02-21T14:32:47;9.70;1.00
21403;DHT22;10862;51.886;17.078;2024-02-21T14:35:13;9.80;99.90
21403;DHT22;10862;51.886;17.078;2024-02-21T14:37:38;9.70;1.00
21403;DHT22;10862;51.886;17.078;2024-02-21T14:40:08;9.70;1.00
21403;DHT22;10862;51.886;17.078;2024-02-21T14:42:40;9.90;1.00
21403;DHT22;10862;51.886;17.078;2024-02-21T14:45:07;9.90;1.00
21403;DHT22;10862;51.886;17.078;2024-02-21T14:47:36;10.10;1.00
21403;DHT22;10862;51.886;17.078;2024-02-21T14:50:02;10.60;1.00
21403;DHT22;10862;51.886;17.078;2024-02-21T14:52:28;9.70;1.00
21403;DHT22;10862;51.886;17.078;2024-02-21T14:54:54;8.90;1.00
21403;DHT22;10862;51.886;17.078;2024-02-21T14:57:20;9.60;1.00
21403;DHT22;10862;51.886;17.078;2024-02-21T14:59:53;10.20;1.00
21403;DHT22;10862;51.886;17.078;2024-02-21T15:02:22;9.80;1.00
21403;DHT22;10862;51.886;17.078;2024-02-21T15:04:48;9.70;1.00
21403;DHT22;10862;51.886;17.078;2024-02-21T15:07:14;9.70;1.00
21403;DHT22;10862;51.886;17.078;2024-02-21T15:09:39;9.60;1.00
21403;DHT22;10862;51.886;17.078;2024-02-21T15:12:05;9.50;1.00
21403;DHT22;10862;51.886;17.078;2024-02-21T15:14:34;9.80;1.00
21403;DHT22;10862;51.886;17.078;2024-02-21T15:17:03;10.90;1.00
21403;DHT22;10862;51.886;17.078;2024-02-21T15:19:29;9.90;1.00
21403;DHT22;10862;51.886;17.078;2024-02-21T15:21:58;10.00;1.00
21403;DHT22;10862;51.886;17.078;2024-02-21T15:24:24;8.80;1.00
21403;DHT22;10862;51.886;17.078;2024-02-21T15:26:49;9.80;1.00
21403;DHT22;10862;51.886;17.078;2024-02-21T15:29:17;9.80;1.00
21403;DHT22;10862;51.886;17.078;2024-02-21T15:31:51;10.60;1.00
21403;DHT22;10862;51.886;17.078;2024-02-21T15:34:18;9.80;1.00
21403;DHT22;10862;51.886;17.078;2024-02-21T15:36:46;10.00;1.00
21403;DHT22;10862;51.886;17.078;2024-02-21T15:39:15;9.60;1.00
21403;DHT22;10862;51.886;17.078;2024-02-21T15:41:41;9.70;1.00
21403;DHT22;10862;51.886;17.078;2024-02-21T15:44:06;9.80;1.00
21403;DHT22;10862;51.886;17.078;2024-02-21T15:46:32;9.70;1.00
21403;DHT22;10862;51.886;17.078;2024-02-21T15:49:01;9.70;1.00
21403;DHT22;10862;51.886;17.078;2024-02-21T15:51:48;8.40;1.00
21403;DHT22;10862;51.886;17.078;2024-02-21T15:54:16;9.80;1.00
21403;DHT22;10862;51.886;17.078;2024-02-21T15:56:44;9.80;1.00
21403;DHT22;10862;51.886;17.078;2024-02-21T15:59:11;9.60;1.00
21403;DHT22;10862;51.886;17.078;2024-02-21T16:01:36;9.80;1.00
21403;DHT22;10862;51.886;17.078;2024-02-21T16:04:05;9.70;1.00
21403;DHT22;10862;51.886;17.078;2024-02-21T16:06:31;9.80;1.00
21403;DHT22;10862;51.886;17.078;2024-02-21T16:08:57;9.70;1.00
21403;DHT22;10862;51.886;17.078;2024-02-21T16:11:28;10.40;1.00
21403;DHT22;10862;51.886;17.078;2024-02-21T16:16:31;9.70;1.00
21403;DHT22;10862;51.886;17.078;2024-02-21T16:19:15;9.80;99.90
21403;DHT22;10862;51.886;17.078;2024-02-21T16:21:43;9.80;99.90